Time;durP1;ratioP1;P1;durP2;ratioP2;P2;SDS_P1;SDS_P2;PMS_P1;PMS_P2;Temp;Humidity;BMP_temperature;BMP_pressure;BME280_temperature;BME280_humidity;BME280_pressure;Samples;Min_cycle;Max_cycle;Signal;HPM_P1;HPM_P2
2023/12/17 00:02:11;;;;;;;11.40;5.70;;;;;;;2.26;100.00;102256.77;106497;1261;73019;-53
2023/12/17 00:04:38;;;;;;;6.50;4.20;;;;;;;2.25;100.00;102254.25;104476;1258;66231;-58
2023/12/17 00:07:06;;;;;;;9.60;4.60;;;;;;;2.24;100.00;102250.33;104571;1262;72476;-57
2023/12/17 00:09:34;;;;;;;9.70;4.90;;;;;;;2.25;100.00;102241.83;104497;1263;59723;-56
2023/12/17 00:12:01;;;;;;;9.60;5.60;;;;;;;2.25;100.00;102241.14;104420;1258;61260;-56
2023/12/17 00:14:29;;;;;;;7.80;5.00;;;;;;;2.26;100.00;102237.61;104428;1261;72081;-57
2023/12/17 00:16:56;;;;;;;8.90;6.20;;;;;;;2.27;100.00;102243.31;104438;1264;66094;-58
2023/12/17 00:19:23;;;;;;;11.00;6.20;;;;;;;2.26;100.00;102240.27;104573;1257;72684;-55
2023/12/17 00:21:51;;;;;;;11.20;6.60;;;;;;;2.24;100.00;102237.02;104610;1258;59728;-57
2023/12/17 00:24:18;;;;;;;11.80;6.50;;;;;;;2.22;100.00;102241.77;104360;1258;59726;-57
2023/12/17 00:26:46;;;;;;;9.40;5.20;;;;;;;2.20;100.00;102234.48;105031;1259;73208;-58
2023/12/17 00:29:13;;;;;;;9.10;5.40;;;;;;;2.20;100.00;102235.34;104547;1258;67423;-57
2023/12/17 00:31:41;;;;;;;8.30;5.00;;;;;;;2.20;100.00;102231.10;104337;1261;71483;-58
2023/12/17 00:34:08;;;;;;;10.10;5.50;;;;;;;2.21;100.00;102228.98;104580;1259;59701;-56
2023/12/17 00:36:36;;;;;;;10.50;5.60;;;;;;;2.24;100.00;102223.04;104534;1258;59585;-57
2023/12/17 00:39:04;;;;;;;12.40;6.30;;;;;;;2.27;100.00;102224.20;104415;1261;73590;-56
2023/12/17 00:41:33;;;;;;;12.00;7.10;;;;;;;2.29;100.00;102215.02;104721;1261;65821;-55
2023/12/17 00:44:01;;;;;;;10.00;7.30;;;;;;;2.30;100.00;102211.67;104812;1259;72247;-57
2023/12/17 00:46:28;;;;;;;12.00;7.00;;;;;;;2.30;100.00;102209.01;104682;1261;59761;-57
2023/12/17 00:48:56;;;;;;;13.80;7.90;;;;;;;2.28;100.00;102204.02;104643;1258;60087;-59
2023/12/17 00:51:23;;;;;;;11.80;6.30;;;;;;;2.27;100.00;102200.63;104519;1260;73925;-58
2023/12/17 00:53:51;;;;;;;9.80;5.70;;;;;;;2.25;100.00;102194.20;104549;1257;65780;-58
2023/12/17 00:56:18;;;;;;;11.50;6.10;;;;;;;2.24;100.00;102191.67;104613;1259;72816;-57
2023/12/17 00:58:46;;;;;;;12.40;6.30;;;;;;;2.24;100.00;102193.81;104500;1257;60872;-58
2023/12/17 01:01:13;;;;;;;10.40;5.90;;;;;;;2.25;100.00;102195.26;104589;1264;59614;-58
2023/12/17 01:03:41;;;;;;;9.40;6.20;;;;;;;2.27;100.00;102195.66;106966;1259;70840;-57
2023/12/17 01:06:09;;;;;;;8.50;6.50;;;;;;;2.29;100.00;102193.77;104611;1259;65644;-56
2023/12/17 01:08:36;;;;;;;11.70;8.20;;;;;;;2.29;100.00;102194.65;104667;1260;71444;-59
2023/12/17 01:11:04;;;;;;;12.10;7.70;;;;;;;2.27;100.00;102195.31;104475;1259;60611;-59
2023/12/17 01:13:31;;;;;;;11.20;6.80;;;;;;;2.25;100.00;102195.61;104735;1258;59712;-58
2023/12/17 01:15:59;;;;;;;13.10;6.70;;;;;;;2.24;100.00;102190.61;104640;1261;73049;-57
2023/12/17 01:18:26;;;;;;;10.70;6.60;;;;;;;2.22;100.00;102180.30;105929;1258;65637;-58
2023/12/17 01:20:54;;;;;;;10.30;6.00;;;;;;;2.23;100.00;102185.45;104420;1262;71071;-58
2023/12/17 01:23:22;;;;;;;9.80;5.80;;;;;;;2.24;100.00;102186.38;104590;1259;59632;-59
2023/12/17 01:25:49;;;;;;;14.50;7.10;;;;;;;2.28;100.00;102182.40;104465;1263;59636;-59
2023/12/17 01:28:17;;;;;;;10.20;6.50;;;;;;;2.31;100.00;102184.56;104445;1258;72189;-57
2023/12/17 01:30:44;;;;;;;10.80;7.10;;;;;;;2.33;100.00;102187.10;104570;1262;67111;-57
2023/12/17 01:33:12;;;;;;;12.20;6.60;;;;;;;2.33;100.00;102184.09;104357;1258;70459;-57
2023/12/17 01:35:40;;;;;;;9.70;7.10;;;;;;;2.33;100.00;102184.09;104740;1259;60426;-58
2023/12/17 01:38:07;;;;;;;10.40;7.50;;;;;;;2.32;100.00;102179.27;104596;1261;60501;-59
2023/12/17 01:40:35;;;;;;;11.60;6.90;;;;;;;2.31;100.00;102176.08;104650;1259;74769;-58
2023/12/17 01:43:03;;;;;;;13.80;7.60;;;;;;;2.31;100.00;102172.89;104531;1258;67462;-60
2023/12/17 01:45:31;;;;;;;12.90;7.30;;;;;;;2.32;100.00;102171.99;105696;1258;72789;-58
2023/12/17 01:47:58;;;;;;;10.80;6.30;;;;;;;2.32;100.00;102170.60;104496;1259;60517;-58
2023/12/17 01:50:26;;;;;;;14.40;6.40;;;;;;;2.32;100.00;102171.64;104290;1258;60549;-58
2023/12/17 01:52:53;;;;;;;13.30;7.40;;;;;;;2.34;100.00;102167.09;104559;1263;73988;-56
2023/12/17 01:55:21;;;;;;;10.00;7.10;;;;;;;2.34;100.00;102153.81;104566;1261;66937;-57
2023/12/17 01:57:48;;;;;;;14.00;7.70;;;;;;;2.32;100.00;102149.70;104493;1259;71398;-56
2023/12/17 02:00:16;;;;;;;13.60;8.30;;;;;;;2.29;100.00;102154.25;104599;1261;60563;-57
2023/12/17 02:02:43;;;;;;;14.20;6.50;;;;;;;2.26;100.00;102152.23;104174;1258;60797;-58
2023/12/17 02:05:11;;;;;;;14.40;6.50;;;;;;;2.23;100.00;102152.86;104213;1258;72677;-57
2023/12/17 02:07:40;;;;;;;11.90;6.50;;;;;;;2.21;100.00;102150.33;104441;1261;67804;-58
2023/12/17 02:10:08;;;;;;;15.20;7.60;;;;;;;2.21;100.00;102150.34;104512;1264;72857;-58
2023/12/17 02:12:35;;;;;;;15.30;8.90;;;;;;;2.22;100.00;102151.05;104386;1261;60427;-58
2023/12/17 02:15:03;;;;;;;9.90;7.00;;;;;;;2.22;100.00;102149.63;104528;1257;60281;-58
2023/12/17 02:17:31;;;;;;;15.30;7.70;;;;;;;2.23;100.00;102148.42;104549;1263;72639;-56
2023/12/17 02:19:59;;;;;;;13.70;7.60;;;;;;;2.25;100.00;102141.20;105001;1261;69230;-58
2023/12/17 02:22:26;;;;;;;12.60;7.20;;;;;;;2.26;100.00;102134.15;104383;1259;71512;-56
2023/12/17 02:24:54;;;;;;;12.00;7.30;;;;;;;2.25;100.00;102132.34;104514;1264;60531;-59
2023/12/17 02:27:22;;;;;;;14.10;6.70;;;;;;;2.23;100.00;102134.08;104544;1259;60482;-58
2023/12/17 02:29:50;;;;;;;12.00;7.50;;;;;;;2.23;100.00;102128.04;108687;1257;74116;-60
2023/12/17 02:32:20;;;;;;;13.80;8.10;;;;;;;2.23;100.00;102123.08;108672;1258;66809;-60
2023/12/17 02:34:51;;;;;;;14.90;7.80;;;;;;;2.24;100.00;102121.50;104653;1257;72386;-59
2023/12/17 02:37:18;;;;;;;15.50;8.50;;;;;;;2.26;100.00;102120.33;108674;1257;58835;-60
2023/12/17 02:39:46;;;;;;;13.20;7.90;;;;;;;2.29;100.00;102117.39;108608;1257;58891;-59
2023/12/17 02:42:13;;;;;;;10.20;7.50;;;;;;;2.32;100.00;102114.60;106008;1264;73776;-60
2023/12/17 02:44:41;;;;;;;15.30;8.40;;;;;;;2.33;100.00;102111.08;104646;1261;66946;-59
2023/12/17 02:47:09;;;;;;;14.30;8.50;;;;;;;2.32;100.00;102107.34;104569;1258;71504;-59
2023/12/17 02:49:36;;;;;;;16.00;9.60;;;;;;;2.30;100.00;102096.68;104409;1258;61438;-60
2023/12/17 02:52:04;;;;;;;10.90;7.10;;;;;;;2.30;100.00;102089.59;104599;1263;60461;-58
2023/12/17 02:54:31;;;;;;;15.60;7.80;;;;;;;2.29;100.00;102084.45;104400;1261;73823;-58
2023/12/17 02:56:59;;;;;;;13.30;7.60;;;;;;;2.30;100.00;102087.47;104620;1261;67385;-60
2023/12/17 02:59:26;;;;;;;11.70;7.90;;;;;;;2.32;100.00;102087.14;104566;1259;71572;-56
2023/12/17 03:01:54;;;;;;;11.60;7.50;;;;;;;2.34;100.00;102087.02;104655;1258;61005;-56
2023/12/17 03:04:23;;;;;;;14.50;8.40;;;;;;;2.37;100.00;102092.95;104472;1264;60341;-60
2023/12/17 03:06:51;;;;;;;14.10;8.10;;;;;;;2.42;100.00;102092.86;104327;1263;73551;-59
2023/12/17 03:09:18;;;;;;;13.10;7.60;;;;;;;2.44;100.00;102096.29;104390;1259;66113;-56
2023/12/17 03:11:46;;;;;;;12.70;7.90;;;;;;;2.45;100.00;102096.33;105239;1261;72748;-58
2023/12/17 03:14:13;;;;;;;11.80;7.30;;;;;;;2.46;100.00;102093.15;104290;1258;61009;-59
2023/12/17 03:16:42;;;;;;;14.70;7.20;;;;;;;2.44;100.00;102087.79;104369;1258;60463;-57
2023/12/17 03:19:10;;;;;;;12.90;7.60;;;;;;;2.43;100.00;102088.47;104426;1257;73114;-57
2023/12/17 03:21:37;;;;;;;11.20;6.90;;;;;;;2.42;100.00;102081.89;104954;1262;65837;-60
2023/12/17 03:24:05;;;;;;;9.40;6.10;;;;;;;2.41;100.00;102078.14;104464;1258;71469;-59
2023/12/17 03:26:33;;;;;;;12.20;7.40;;;;;;;2.40;100.00;102071.38;104733;1263;62309;-60
2023/12/17 03:29:01;;;;;;;11.40;6.20;;;;;;;2.41;100.00;102069.27;104863;1264;60354;-58
2023/12/17 03:31:28;;;;;;;10.40;7.00;;;;;;;2.43;100.00;102070.73;104415;1259;73894;-58
2023/12/17 03:33:56;;;;;;;13.40;7.10;;;;;;;2.44;100.00;102066.33;104384;1264;66355;-58
2023/12/17 03:36:23;;;;;;;13.10;7.90;;;;;;;2.46;100.00;102064.08;104384;1258;71458;-57
2023/12/17 03:38:51;;;;;;;9.40;7.00;;;;;;;2.47;100.00;102064.27;104553;1258;60865;-56
2023/12/17 03:41:26;;;;;;;15.10;7.00;;;;;;;2.46;100.00;102060.17;104501;1258;60573;-58
2023/12/17 03:43:55;;;;;;;12.70;6.50;;;;;;;2.46;100.00;102062.48;105177;1261;74076;-58
2023/12/17 03:46:24;;;;;;;14.30;7.70;;;;;;;2.46;100.00;102055.21;104958;1263;66074;-58
2023/12/17 03:48:52;;;;;;;13.20;6.80;;;;;;;2.45;100.00;102051.66;104569;1261;72371;-56
2023/12/17 03:51:19;;;;;;;12.50;6.30;;;;;;;2.46;100.00;102045.65;104732;1262;60598;-59
2023/12/17 03:53:47;;;;;;;9.10;6.40;;;;;;;2.48;100.00;102045.14;105937;1260;63485;-56
2023/12/17 03:56:15;;;;;;;11.40;7.20;;;;;;;2.49;100.00;102040.37;105252;1262;72992;-59
2023/12/17 03:58:43;;;;;;;14.60;7.80;;;;;;;2.50;100.00;102040.59;105198;1261;67060;-58
2023/12/17 04:01:11;;;;;;;12.80;7.80;;;;;;;2.51;100.00;102037.59;105131;1261;72063;-58
2023/12/17 04:03:39;;;;;;;10.70;7.10;;;;;;;2.52;100.00;102040.63;104436;1265;60654;-59
2023/12/17 04:06:07;;;;;;;11.80;6.40;;;;;;;2.51;100.00;102037.60;104716;1259;60555;-57
2023/12/17 04:08:35;;;;;;;10.10;6.20;;;;;;;2.51;100.00;102033.86;104812;1257;72672;-59
2023/12/17 04:11:03;;;;;;;9.20;6.80;;;;;;;2.49;100.00;102029.92;104657;1262;67047;-57
2023/12/17 04:13:30;;;;;;;9.90;5.90;;;;;;;2.49;100.00;102027.98;105451;1259;71492;-58
2023/12/17 04:15:58;;;;;;;9.30;7.00;;;;;;;2.49;100.00;102028.86;104675;1259;60500;-55
2023/12/17 04:18:25;;;;;;;10.40;6.80;;;;;;;2.49;100.00;102023.89;104727;1259;60639;-57
2023/12/17 04:20:53;;;;;;;9.20;6.30;;;;;;;2.48;100.00;102019.09;104620;1263;72646;-58
2023/12/17 04:23:20;;;;;;;12.70;8.20;;;;;;;2.49;100.00;102015.91;104769;1257;67072;-58
2023/12/17 04:25:48;;;;;;;11.00;7.30;;;;;;;2.47;100.00;102009.33;104781;1262;72749;-58
2023/12/17 04:28:15;;;;;;;12.30;7.40;;;;;;;2.45;100.00;102006.45;104860;1259;61118;-58
2023/12/17 04:30:42;;;;;;;8.80;6.00;;;;;;;2.44;100.00;101997.92;104730;1259;60591;-57
2023/12/17 04:33:10;;;;;;;10.00;6.40;;;;;;;2.44;100.00;101991.55;104793;1263;73842;-58
2023/12/17 04:35:38;;;;;;;9.40;5.90;;;;;;;2.45;100.00;101988.21;104758;1263;65510;-58
2023/12/17 04:38:05;;;;;;;9.30;6.80;;;;;;;2.46;100.00;101982.92;104680;1262;72727;-59
2023/12/17 04:40:33;;;;;;;10.30;6.80;;;;;;;2.48;100.00;101978.86;104431;1258;60490;-57
2023/12/17 04:43:00;;;;;;;10.50;7.60;;;;;;;2.50;100.00;101981.21;104471;1258;60366;-58
2023/12/17 04:45:27;;;;;;;12.20;7.60;;;;;;;2.53;100.00;101979.51;104532;1263;76353;-59
2023/12/17 04:47:56;;;;;;;14.60;8.50;;;;;;;2.53;100.00;101983.59;105360;1261;65918;-58
2023/12/17 04:50:25;;;;;;;13.60;7.90;;;;;;;2.53;100.00;101981.29;104622;1259;71784;-58
2023/12/17 04:52:52;;;;;;;11.80;7.70;;;;;;;2.51;100.00;101976.45;104537;1262;60545;-57
2023/12/17 04:55:19;;;;;;;12.90;8.00;;;;;;;2.49;100.00;101968.61;104715;1261;60031;-57
2023/12/17 04:57:47;;;;;;;14.40;7.50;;;;;;;2.47;100.00;101970.52;104661;1262;72687;-58
2023/12/17 05:00:15;;;;;;;11.70;7.30;;;;;;;2.45;100.00;101971.39;104601;1261;67188;-58
2023/12/17 05:02:42;;;;;;;11.20;7.00;;;;;;;2.45;100.00;101962.52;104969;1262;72629;-59
2023/12/17 05:05:10;;;;;;;9.20;6.80;;;;;;;2.45;100.00;101959.86;104742;1261;61113;-56
2023/12/17 05:07:38;;;;;;;11.60;6.70;;;;;;;2.46;100.00;101960.23;104952;1261;60461;-58
2023/12/17 05:10:06;;;;;;;13.60;7.60;;;;;;;2.48;100.00;101962.37;104969;1262;73875;-58
2023/12/17 05:12:34;;;;;;;12.90;8.00;;;;;;;2.47;100.00;101963.95;104776;1261;65516;-59
2023/12/17 05:15:01;;;;;;;13.90;7.40;;;;;;;2.46;100.00;101963.77;104746;1261;72792;-55
2023/12/17 05:17:31;;;;;;;8.90;5.60;;;;;;;2.46;100.00;101962.89;104748;1259;60720;-58
2023/12/17 05:19:59;;;;;;;11.70;7.40;;;;;;;2.45;100.00;101960.77;105820;1261;60332;-59
2023/12/17 05:22:26;;;;;;;11.60;7.70;;;;;;;2.46;100.00;101960.77;108815;1259;73807;-57
2023/12/17 05:24:53;;;;;;;11.10;7.00;;;;;;;2.47;100.00;101957.58;108713;1257;66926;-54
2023/12/17 05:27:21;;;;;;;11.60;7.10;;;;;;;2.49;100.00;101956.38;104692;1265;73645;-62
2023/12/17 05:29:49;;;;;;;10.00;6.60;;;;;;;2.51;100.00;101957.50;104727;1259;60554;-54
2023/12/17 05:32:16;;;;;;;13.80;8.70;;;;;;;2.54;100.00;101966.95;105487;1263;60633;-57
2023/12/17 05:34:44;;;;;;;13.40;8.20;;;;;;;2.55;100.00;101969.08;104387;1257;72789;-56
2023/12/17 05:37:11;;;;;;;15.80;9.20;;;;;;;2.56;100.00;101968.02;104451;1258;66264;-55
2023/12/17 05:39:38;;;;;;;11.60;6.60;;;;;;;2.56;100.00;101969.64;104583;1257;73206;-58
2023/12/17 05:42:06;;;;;;;12.70;7.10;;;;;;;2.58;100.00;101965.05;105018;1261;60756;-57
2023/12/17 05:44:33;;;;;;;15.00;7.60;;;;;;;2.58;100.00;101965.59;108670;1261;61114;-56
2023/12/17 05:47:01;;;;;;;12.30;7.10;;;;;;;2.58;100.00;101966.65;107328;1260;73785;-58
2023/12/17 05:49:28;;;;;;;19.40;8.30;;;;;;;2.59;100.00;101971.48;104820;1262;67039;-58
2023/12/17 05:51:56;;;;;;;15.10;8.30;;;;;;;2.63;100.00;101973.50;104704;1261;72741;-59
2023/12/17 05:54:23;;;;;;;15.90;8.60;;;;;;;2.66;100.00;101980.65;104618;1261;60412;-57
2023/12/17 05:56:51;;;;;;;14.90;8.70;;;;;;;2.68;100.00;101976.42;104658;1258;60773;-56
2023/12/17 05:59:18;;;;;;;13.10;8.90;;;;;;;2.66;100.00;101979.23;104822;1262;74362;-59
2023/12/17 06:01:46;;;;;;;14.30;9.50;;;;;;;2.65;100.00;101982.20;104497;1263;66766;-57
2023/12/17 06:04:13;;;;;;;14.00;8.70;;;;;;;2.64;100.00;101990.35;104601;1262;71459;-56
2023/12/17 06:06:41;;;;;;;14.30;8.50;;;;;;;2.63;100.00;101986.27;104559;1269;61355;-58
2023/12/17 06:09:09;;;;;;;14.30;8.00;;;;;;;2.63;100.00;101980.23;104987;1262;60568;-56
2023/12/17 06:11:37;;;;;;;11.80;6.80;;;;;;;2.64;100.00;101979.52;104866;1262;72639;-56
2023/12/17 06:14:04;;;;;;;12.10;7.60;;;;;;;2.66;100.00;101981.53;104516;1261;66750;-54
2023/12/17 06:16:31;;;;;;;14.90;9.10;;;;;;;2.69;100.00;101982.83;104535;1261;71862;-59
2023/12/17 06:18:59;;;;;;;15.90;9.50;;;;;;;2.70;100.00;101975.58;104432;1261;60421;-57
2023/12/17 06:21:27;;;;;;;16.00;9.90;;;;;;;2.69;100.00;101966.70;105159;1258;60794;-57
2023/12/17 06:23:57;;;;;;;18.10;8.90;;;;;;;2.69;100.00;101966.52;104765;1261;74470;-57
2023/12/17 06:26:26;;;;;;;11.20;7.70;;;;;;;2.66;100.00;101970.71;104879;1261;65566;-57
2023/12/17 06:28:53;;;;;;;15.80;7.90;;;;;;;2.64;100.00;101966.42;104573;1263;72702;-57
2023/12/17 06:31:22;;;;;;;14.40;7.80;;;;;;;2.63;100.00;101974.23;104540;1257;60960;-55
2023/12/17 06:33:53;;;;;;;15.60;8.20;;;;;;;2.63;100.00;101970.14;104495;1256;60511;-57
2023/12/17 06:36:21;;;;;;;12.60;7.40;;;;;;;2.66;100.00;101968.21;105195;1259;74027;-55
2023/12/17 06:38:49;;;;;;;12.90;9.00;;;;;;;2.69;100.00;101964.38;104813;1258;67086;-62
2023/12/17 06:41:16;;;;;;;13.70;8.20;;;;;;;2.71;100.00;101960.89;104908;1263;70672;-54
2023/12/17 06:43:44;;;;;;;12.00;8.20;;;;;;;2.71;100.00;101961.24;104452;1263;60558;-52
2023/12/17 06:46:18;;;;;;;12.90;8.60;;;;;;;2.71;100.00;101955.56;104457;1262;60401;-56
2023/12/17 06:48:47;;;;;;;11.80;7.40;;;;;;;2.70;100.00;101955.55;104608;1263;74253;-56
2023/12/17 06:51:14;;;;;;;12.40;7.10;;;;;;;2.69;100.00;101952.88;104950;1263;66070;-54
2023/12/17 06:53:42;;;;;;;12.70;7.60;;;;;;;2.68;100.00;101955.33;104727;1262;73564;-54
2023/12/17 06:56:09;;;;;;;16.00;9.10;;;;;;;2.68;100.00;101957.82;104661;1257;60550;-53
2023/12/17 06:58:37;;;;;;;10.10;7.60;;;;;;;2.71;100.00;101959.10;104580;1256;60432;-53
2023/12/17 07:01:04;;;;;;;11.60;7.30;;;;;;;2.73;100.00;101954.89;104577;1263;72945;-56
2023/12/17 07:03:32;;;;;;;13.30;7.90;;;;;;;2.75;100.00;101958.27;104437;1260;67634;-51
2023/12/17 07:06:00;;;;;;;10.70;6.60;;;;;;;2.74;100.00;101957.38;104442;1257;71509;-54
2023/12/17 07:08:27;;;;;;;9.80;7.30;;;;;;;2.72;100.00;101962.50;104369;1258;60543;-54
2023/12/17 07:10:54;;;;;;;9.40;6.30;;;;;;;2.70;100.00;101959.45;104681;1260;61174;-54
2023/12/17 07:13:22;;;;;;;9.90;7.50;;;;;;;2.69;100.00;101958.36;104641;1260;71594;-52
2023/12/17 07:15:49;;;;;;;9.10;6.60;;;;;;;2.69;100.00;101956.94;104429;1263;65635;-51
2023/12/17 07:18:17;;;;;;;10.60;6.40;;;;;;;2.70;100.00;101948.98;104381;1264;74963;-54
2023/12/17 07:20:44;;;;;;;7.60;6.30;;;;;;;2.72;100.00;101946.55;105094;1260;60522;-54
2023/12/17 07:23:12;;;;;;;8.50;6.00;;;;;;;2.73;100.00;101951.16;104721;1261;60368;-54
2023/12/17 07:25:39;;;;;;;6.50;5.30;;;;;;;2.75;100.00;101962.19;104582;1258;74764;-58
2023/12/17 07:28:07;;;;;;;10.80;7.50;;;;;;;2.75;100.00;101961.30;104427;1262;67497;-56
2023/12/17 07:30:35;;;;;;;11.80;6.60;;;;;;;2.75;100.00;101960.77;104622;1262;72658;-51
2023/12/17 07:33:02;;;;;;;9.80;5.60;;;;;;;2.75;100.00;101960.05;105957;1257;60631;-53
2023/12/17 07:35:30;;;;;;;6.80;5.40;;;;;;;2.72;100.00;101957.18;104451;1262;60503;-54
2023/12/17 07:37:58;;;;;;;7.50;4.60;;;;;;;2.70;100.00;101956.43;104509;1262;73937;-55
2023/12/17 07:40:25;;;;;;;6.70;5.10;;;;;;;2.69;100.00;101954.64;104698;1261;67552;-53
2023/12/17 07:42:53;;;;;;;7.10;4.60;;;;;;;2.70;100.00;101952.19;104631;1262;71513;-54
2023/12/17 07:45:20;;;;;;;5.80;3.90;;;;;;;2.72;100.00;101946.72;104545;1263;61677;-54
2023/12/17 07:47:48;;;;;;;9.30;4.50;;;;;;;2.75;100.00;101946.77;104559;1257;60923;-54
2023/12/17 07:50:16;;;;;;;9.00;5.10;;;;;;;2.78;100.00;101947.91;108580;1257;72708;-57
2023/12/17 07:52:43;;;;;;;7.40;5.10;;;;;;;2.80;100.00;101955.56;106521;1257;66894;-55
2023/12/17 07:55:10;;;;;;;7.30;4.80;;;;;;;2.80;100.00;101951.30;104652;1261;73041;-55
2023/12/17 07:57:38;;;;;;;7.20;5.10;;;;;;;2.80;100.00;101959.11;104599;1257;62014;-53
2023/12/17 08:00:08;;;;;;;7.10;5.20;;;;;;;2.79;100.00;101965.12;104681;1262;60423;-56
2023/12/17 08:02:38;;;;;;;7.10;4.10;;;;;;;2.79;100.00;101973.09;107800;1257;73805;-52
2023/12/17 08:05:07;;;;;;;6.10;4.40;;;;;;;2.79;100.00;101972.57;104617;1261;67162;-55
2023/12/17 08:07:36;;;;;;;5.00;3.80;;;;;;;2.80;100.00;101976.30;108743;1257;71448;-55
2023/12/17 08:10:06;;;;;;;3.90;3.10;;;;;;;2.82;100.00;101983.08;108651;1257;60494;-56
2023/12/17 08:12:33;;;;;;;4.40;3.60;;;;;;;2.85;100.00;101985.63;108770;1257;58962;-57
2023/12/17 08:15:01;;;;;;;5.70;3.70;;;;;;;2.88;100.00;101989.05;108680;1257;74737;-56
2023/12/17 08:17:28;;;;;;;6.70;5.30;;;;;;;2.89;100.00;101991.19;108737;1257;66051;-54
2023/12/17 08:19:56;;;;;;;6.80;4.40;;;;;;;2.91;100.00;101988.02;108581;1257;73581;-54
2023/12/17 08:22:23;;;;;;;8.20;5.10;;;;;;;2.92;100.00;101991.06;108648;1257;60921;-55
2023/12/17 08:24:51;;;;;;;5.30;3.50;;;;;;;2.93;100.00;101991.27;108621;1257;59356;-55
2023/12/17 08:27:19;;;;;;;7.90;3.90;;;;;;;2.94;100.00;101990.05;104691;1260;72652;-53
2023/12/17 08:29:50;;;;;;;7.20;3.60;;;;;;;2.95;100.00;101987.59;104472;1258;65796;-55
2023/12/17 08:32:18;;;;;;;5.20;3.50;;;;;;;2.98;100.00;101990.27;104510;1257;70826;-56
2023/12/17 08:34:45;;;;;;;6.10;3.90;;;;;;;2.99;100.00;101985.16;104292;1257;60885;-58
2023/12/17 08:37:13;;;;;;;5.10;3.80;;;;;;;3.02;100.00;101986.10;104561;1260;61095;-58
2023/12/17 08:39:40;;;;;;;6.60;3.60;;;;;;;3.05;100.00;101989.52;104500;1256;72635;-55
2023/12/17 08:42:08;;;;;;;8.70;4.50;;;;;;;3.09;100.00;101986.21;104646;1260;65644;-57
2023/12/17 08:44:35;;;;;;;4.00;3.20;;;;;;;3.11;100.00;101987.14;104465;1258;71407;-55
2023/12/17 08:47:03;;;;;;;4.30;3.40;;;;;;;3.10;100.00;101981.81;104743;1258;63209;-55
2023/12/17 08:49:30;;;;;;;4.80;3.00;;;;;;;3.09;100.00;101983.38;104537;1261;60426;-54
2023/12/17 08:51:58;;;;;;;3.40;2.80;;;;;;;3.07;100.00;101982.27;104747;1258;72740;-56
2023/12/17 08:54:25;;;;;;;3.10;2.10;;;;;;;3.04;100.00;101982.96;104685;1262;66970;-57
2023/12/17 08:56:53;;;;;;;2.20;2.00;;;;;;;3.04;100.00;101976.04;104539;1257;71568;-52
2023/12/17 08:59:20;;;;;;;2.30;1.80;;;;;;;3.05;100.00;101985.47;104660;1260;61655;-55
2023/12/17 09:01:49;;;;;;;3.80;2.20;;;;;;;3.07;100.00;101992.20;104710;1258;60517;-57
2023/12/17 09:04:17;;;;;;;4.70;2.40;;;;;;;3.07;100.00;101990.96;105937;1258;72594;-55
2023/12/17 09:06:45;;;;;;;4.40;2.60;;;;;;;3.06;100.00;101987.77;105327;1258;67345;-54
2023/12/17 09:09:13;;;;;;;3.10;1.60;;;;;;;3.04;100.00;101981.73;104504;1257;72750;-54
2023/12/17 09:11:41;;;;;;;2.50;1.20;;;;;;;3.02;100.00;101982.39;104637;1258;60855;-52
2023/12/17 09:14:09;;;;;;;2.60;1.30;;;;;;;2.99;100.00;101975.58;104519;1257;60440;-58
2023/12/17 09:16:37;;;;;;;2.20;1.50;;;;;;;2.98;100.00;101975.56;104424;1260;75784;-54
2023/12/17 09:19:05;;;;;;;2.40;1.30;;;;;;;2.98;100.00;101975.91;108609;1257;65141;-55
2023/12/17 09:21:33;;;;;;;1.70;1.30;;;;;;;2.98;100.00;101972.37;108623;1257;72650;-56
2023/12/17 09:24:01;;;;;;;1.90;1.60;;;;;;;2.99;100.00;101974.51;108678;1257;60021;-57
2023/12/17 09:26:28;;;;;;;3.40;2.00;;;;;;;3.03;100.00;101983.11;108728;1257;58874;-57
2023/12/17 09:28:56;;;;;;;2.00;1.80;;;;;;;3.06;100.00;101984.76;108681;1257;73928;-57
2023/12/17 09:31:23;;;;;;;2.80;1.90;;;;;;;3.06;100.00;101986.02;106811;1258;66782;-57
2023/12/17 09:33:51;;;;;;;3.00;1.70;;;;;;;3.08;100.00;101980.33;105005;1262;71485;-56
2023/12/17 09:36:18;;;;;;;3.20;2.20;;;;;;;3.05;100.00;101981.04;105194;1260;60565;-56
2023/12/17 09:38:46;;;;;;;3.10;1.90;;;;;;;3.05;100.00;101982.62;104711;1260;60365;-55
2023/12/17 09:44:10;;;;;;;2.50;1.80;;;;;;;3.05;100.00;102076.10;101934;1295;601040;-56
2023/12/17 09:46:38;;;;;;;3.00;2.20;;;;;;;3.08;100.00;102152.42;103960;1270;61813;-55
2023/12/17 09:49:05;;;;;;;3.30;2.10;;;;;;;3.12;100.00;102133.52;104116;1272;58983;-56
2023/12/17 09:51:36;;;;;;;4.10;2.20;;;;;;;3.13;100.00;102123.27;106686;1266;71095;-57
2023/12/17 09:54:04;;;;;;;2.50;1.60;;;;;;;3.13;100.00;102112.08;104131;1267;66080;-53
2023/12/17 09:56:32;;;;;;;1.60;1.40;;;;;;;3.13;100.00;102097.89;104273;1267;71394;-58
2023/12/17 09:58:59;;;;;;;2.20;1.70;;;;;;;3.13;100.00;102090.98;103951;1266;125894;-59
2023/12/17 10:01:27;;;;;;;1.60;1.20;;;;;;;3.14;100.00;102085.48;104120;1264;59368;-57
2023/12/17 10:03:56;;;;;;;3.30;1.60;;;;;;;3.16;100.00;102081.98;104898;1264;71156;-57
2023/12/17 10:06:24;;;;;;;2.60;1.40;;;;;;;3.19;100.00;102085.40;104381;1264;67705;-56
2023/12/17 10:08:56;;;;;;;3.60;1.70;;;;;;;3.21;100.00;102084.05;104154;1264;75981;-57
2023/12/17 10:11:24;;;;;;;2.50;1.90;;;;;;;3.22;100.00;102086.01;104460;1269;59692;-54
2023/12/17 10:13:51;;;;;;;4.90;2.40;;;;;;;3.22;100.00;102082.30;104071;1265;60336;-56
2023/12/17 10:16:20;;;;;;;3.40;2.00;;;;;;;3.23;100.00;102076.08;103974;1264;73570;-54
2023/12/17 10:18:48;;;;;;;3.70;1.20;;;;;;;3.21;100.00;102069.31;104336;1268;66894;-56
2023/12/17 10:21:16;;;;;;;2.20;1.60;;;;;;;3.21;100.00;102069.83;104954;1267;71445;-53
2023/12/17 10:23:50;;;;;;;1.40;1.10;;;;;;;3.21;100.00;102065.05;105479;1267;60617;-57
2023/12/17 10:26:18;;;;;;;3.70;1.50;;;;;;;3.23;100.00;102064.91;105110;1264;60503;-56
2023/12/17 10:28:46;;;;;;;2.50;1.50;;;;;;;3.25;100.00;102059.96;104217;1264;73204;-56
2023/12/17 10:31:15;;;;;;;3.40;1.50;;;;;;;3.28;100.00;102052.73;105099;1264;65801;-55
2023/12/17 10:33:56;;;;;;;2.80;1.60;;;;;;;3.31;100.00;102052.45;105123;1266;71651;-53
2023/12/17 10:36:24;;;;;;;2.00;1.30;;;;;;;3.30;100.00;102055.80;104743;1257;59769;-56
2023/12/17 10:38:52;;;;;;;3.20;1.80;;;;;;;3.27;100.00;102045.62;108702;1257;58902;-53
2023/12/17 10:41:19;;;;;;;1.80;1.30;;;;;;;3.24;100.00;102043.62;107783;1260;73566;-55
2023/12/17 10:43:47;;;;;;;3.70;1.70;;;;;;;3.22;100.00;102040.05;104612;1262;65642;-55
2023/12/17 10:46:14;;;;;;;1.50;1.00;;;;;;;3.22;100.00;102036.14;104163;1265;71290;-53
2023/12/17 10:48:42;;;;;;;2.60;1.30;;;;;;;3.23;100.00;102033.85;104322;1260;61775;-60
2023/12/17 10:51:15;;;;;;;4.00;1.00;;;;;;;3.25;100.00;102036.36;104409;1257;61211;-56
2023/12/17 10:53:43;;;;;;;1.10;0.90;;;;;;;3.26;100.00;102037.09;104854;1263;72129;-56
2023/12/17 10:56:11;;;;;;;1.50;1.30;;;;;;;3.27;100.00;102038.00;104666;1257;67141;-57
2023/12/17 10:58:39;;;;;;;2.90;1.50;;;;;;;3.27;100.00;102041.55;108678;1257;72767;-59
2023/12/17 11:01:06;;;;;;;0.90;0.80;;;;;;;3.28;100.00;102042.45;108646;1255;59669;-56
2023/12/17 11:03:34;;;;;;;1.90;0.80;;;;;;;3.26;100.00;102044.90;108669;1256;60061;-53
2023/12/17 11:06:04;;;;;;;1.20;0.90;;;;;;;3.26;100.00;102039.75;108749;1256;74677;-55
2023/12/17 11:08:32;;;;;;;2.00;0.90;;;;;;;3.26;100.00;102037.09;108761;1257;67094;-53
2023/12/17 11:10:59;;;;;;;1.70;0.90;;;;;;;3.27;100.00;102041.02;108565;1260;71426;-55
2023/12/17 11:13:27;;;;;;;1.90;1.00;;;;;;;3.28;100.00;102043.36;108592;1257;59815;-54
2023/12/17 11:15:54;;;;;;;1.20;0.90;;;;;;;3.29;100.00;102051.54;108616;1257;58870;-55
2023/12/17 11:18:25;;;;;;;1.60;1.20;;;;;;;3.30;100.00;102055.29;108764;1256;73162;-54